sensor_id;sensor_type;location;lat;lon;timestamp;temperature;humidity
30250;DHT22;17064;47.974;13.826;2024-01-27T00:00:09;4.50;99.90
30250;DHT22;17064;47.974;13.826;2024-01-27T00:05:28;4.60;99.90
30250;DHT22;17064;47.974;13.826;2024-01-27T00:10:47;4.60;99.90
30250;DHT22;17064;47.974;13.826;2024-01-27T00:16:07;4.60;99.90
30250;DHT22;17064;47.974;13.826;2024-01-27T00:21:26;4.60;99.90
30250;DHT22;17064;47.974;13.826;2024-01-27T00:26:45;4.60;99.90
30250;DHT22;17064;47.974;13.826;2024-01-27T00:32:05;4.60;99.90
30250;DHT22;17064;47.974;13.826;2024-01-27T00:37:24;4.60;99.90
30250;DHT22;17064;47.974;13.826;2024-01-27T00:42:44;4.60;99.90
30250;DHT22;17064;47.974;13.826;2024-01-27T00:48:04;4.60;99.90
30250;DHT22;17064;47.974;13.826;2024-01-27T00:53:23;4.60;99.90
30250;DHT22;17064;47.974;13.826;2024-01-27T00:58:43;4.50;99.90
30250;DHT22;17064;47.974;13.826;2024-01-27T01:04:02;4.40;99.90
30250;DHT22;17064;47.974;13.826;2024-01-27T01:09:22;4.40;99.90
30250;DHT22;17064;47.974;13.826;2024-01-27T01:14:41;4.30;99.90
30250;DHT22;17064;47.974;13.826;2024-01-27T01:20:01;4.30;99.90
30250;DHT22;17064;47.974;13.826;2024-01-27T01:25:21;4.30;99.90
30250;DHT22;17064;47.974;13.826;2024-01-27T01:30:40;4.20;99.90
30250;DHT22;17064;47.974;13.826;2024-01-27T01:35:59;4.20;99.90
30250;DHT22;17064;47.974;13.826;2024-01-27T01:41:19;4.20;99.90
30250;DHT22;17064;47.974;13.826;2024-01-27T01:46:38;4.10;99.90
30250;DHT22;17064;47.974;13.826;2024-01-27T01:51:57;4.10;99.90
30250;DHT22;17064;47.974;13.826;2024-01-27T01:57:17;4.10;99.90
30250;DHT22;17064;47.974;13.826;2024-01-27T02:02:36;4.10;99.90
30250;DHT22;17064;47.974;13.826;2024-01-27T02:07:59;4.10;99.90
30250;DHT22;17064;47.974;13.826;2024-01-27T02:13:21;4.10;99.90
30250;DHT22;17064;47.974;13.826;2024-01-27T02:18:40;4.10;99.90
30250;DHT22;17064;47.974;13.826;2024-01-27T02:24:00;4.10;99.90
30250;DHT22;17064;47.974;13.826;2024-01-27T02:29:19;4.10;99.90
30250;DHT22;17064;47.974;13.826;2024-01-27T02:34:39;4.10;99.90
30250;DHT22;17064;47.974;13.826;2024-01-27T02:39:58;4.00;99.90
30250;DHT22;17064;47.974;13.826;2024-01-27T02:45:18;4.00;99.90
30250;DHT22;17064;47.974;13.826;2024-01-27T02:50:37;4.00;99.90
30250;DHT22;17064;47.974;13.826;2024-01-27T02:55:56;4.00;99.90
30250;DHT22;17064;47.974;13.826;2024-01-27T03:01:16;4.00;99.90
30250;DHT22;17064;47.974;13.826;2024-01-27T03:06:35;4.00;99.90
30250;DHT22;17064;47.974;13.826;2024-01-27T03:11:55;4.00;99.90
30250;DHT22;17064;47.974;13.826;2024-01-27T03:17:15;4.00;99.90
30250;DHT22;17064;47.974;13.826;2024-01-27T03:22:34;4.00;99.90
30250;DHT22;17064;47.974;13.826;2024-01-27T03:27:54;4.00;99.90
30250;DHT22;17064;47.974;13.826;2024-01-27T03:33:14;4.00;99.90
30250;DHT22;17064;47.974;13.826;2024-01-27T03:38:34;4.00;99.90
30250;DHT22;17064;47.974;13.826;2024-01-27T03:43:55;4.00;99.90
30250;DHT22;17064;47.974;13.826;2024-01-27T03:49:15;4.10;99.90
30250;DHT22;17064;47.974;13.826;2024-01-27T03:54:34;4.10;99.90
30250;DHT22;17064;47.974;13.826;2024-01-27T03:59:54;4.10;99.90
30250;DHT22;17064;47.974;13.826;2024-01-27T04:05:13;4.00;99.90
30250;DHT22;17064;47.974;13.826;2024-01-27T04:10:33;4.00;99.90
30250;DHT22;17064;47.974;13.826;2024-01-27T04:15:53;4.00;99.90
30250;DHT22;17064;47.974;13.826;2024-01-27T04:21:12;3.90;99.90
30250;DHT22;17064;47.974;13.826;2024-01-27T04:26:32;3.90;99.90
30250;DHT22;17064;47.974;13.826;2024-01-27T04:31:51;3.90;99.90
30250;DHT22;17064;47.974;13.826;2024-01-27T04:37:10;3.90;99.90
30250;DHT22;17064;47.974;13.826;2024-01-27T04:42:29;3.90;99.90
30250;DHT22;17064;47.974;13.826;2024-01-27T04:47:48;3.90;99.90
30250;DHT22;17064;47.974;13.826;2024-01-27T04:53:08;3.90;99.90
30250;DHT22;17064;47.974;13.826;2024-01-27T04:58:27;3.80;99.90
30250;DHT22;17064;47.974;13.826;2024-01-27T05:03:47;3.80;99.90
30250;DHT22;17064;47.974;13.826;2024-01-27T05:09:06;3.80;99.90
30250;DHT22;17064;47.974;13.826;2024-01-27T05:14:26;3.80;99.90
30250;DHT22;17064;47.974;13.826;2024-01-27T05:19:46;3.70;99.90
30250;DHT22;17064;47.974;13.826;2024-01-27T05:25:06;3.70;99.90
30250;DHT22;17064;47.974;13.826;2024-01-27T05:30:25;3.70;99.90
30250;DHT22;17064;47.974;13.826;2024-01-27T05:35:45;3.70;99.90
30250;DHT22;17064;47.974;13.826;2024-01-27T05:41:04;3.70;99.90
30250;DHT22;17064;47.974;13.826;2024-01-27T05:46:24;3.60;99.90
30250;DHT22;17064;47.974;13.826;2024-01-27T05:51:43;3.60;99.90
30250;DHT22;17064;47.974;13.826;2024-01-27T05:57:03;3.50;99.90
30250;DHT22;17064;47.974;13.826;2024-01-27T06:02:22;3.60;99.90
30250;DHT22;17064;47.974;13.826;2024-01-27T06:07:42;3.50;99.90
30250;DHT22;17064;47.974;13.826;2024-01-27T06:13:02;3.40;99.90
30250;DHT22;17064;47.974;13.826;2024-01-27T06:18:22;3.40;99.90
30250;DHT22;17064;47.974;13.826;2024-01-27T06:23:42;3.30;99.90
30250;DHT22;17064;47.974;13.826;2024-01-27T06:29:02;3.30;99.90
30250;DHT22;17064;47.974;13.826;2024-01-27T06:34:21;3.30;99.90
30250;DHT22;17064;47.974;13.826;2024-01-27T06:39:40;3.20;99.90
30250;DHT22;17064;47.974;13.826;2024-01-27T06:44:59;3.30;99.90
30250;DHT22;17064;47.974;13.826;2024-01-27T06:50:19;3.30;99.90
30250;DHT22;17064;47.974;13.826;2024-01-27T06:55:38;3.30;99.90
30250;DHT22;17064;47.974;13.826;2024-01-27T07:00:58;3.30;99.90
30250;DHT22;17064;47.974;13.826;2024-01-27T07:06:17;3.20;99.90
30250;DHT22;17064;47.974;13.826;2024-01-27T07:11:37;3.20;99.90
30250;DHT22;17064;47.974;13.826;2024-01-27T07:16:56;3.20;99.90
30250;DHT22;17064;47.974;13.826;2024-01-27T07:22:16;3.20;99.90
30250;DHT22;17064;47.974;13.826;2024-01-27T07:27:36;3.30;99.90
30250;DHT22;17064;47.974;13.826;2024-01-27T07:32:55;3.30;99.90
30250;DHT22;17064;47.974;13.826;2024-01-27T07:38:14;3.40;99.90
30250;DHT22;17064;47.974;13.826;2024-01-27T07:43:34;3.40;99.90
30250;DHT22;17064;47.974;13.826;2024-01-27T07:48:53;3.40;99.90
30250;DHT22;17064;47.974;13.826;2024-01-27T07:54:12;3.40;99.90
30250;DHT22;17064;47.974;13.826;2024-01-27T07:59:31;3.40;99.90
30250;DHT22;17064;47.974;13.826;2024-01-27T08:04:51;3.40;99.90
30250;DHT22;17064;47.974;13.826;2024-01-27T08:10:10;3.40;99.90
30250;DHT22;17064;47.974;13.826;2024-01-27T08:15:30;3.40;99.90
30250;DHT22;17064;47.974;13.826;2024-01-27T08:20:49;3.40;99.90
30250;DHT22;17064;47.974;13.826;2024-01-27T08:26:09;3.40;99.90
30250;DHT22;17064;47.974;13.826;2024-01-27T08:31:28;3.20;99.90
30250;DHT22;17064;47.974;13.826;2024-01-27T08:36:47;3.20;99.90
30250;DHT22;17064;47.974;13.826;2024-01-27T08:42:06;3.20;99.90
30250;DHT22;17064;47.974;13.826;2024-01-27T08:47:26;3.30;99.90
30250;DHT22;17064;47.974;13.826;2024-01-27T08:52:45;3.40;99.90
30250;DHT22;17064;47.974;13.826;2024-01-27T08:58:08;3.40;99.90
30250;DHT22;17064;47.974;13.826;2024-01-27T09:03:27;3.40;99.90
30250;DHT22;17064;47.974;13.826;2024-01-27T09:08:47;3.50;99.90
30250;DHT22;17064;47.974;13.826;2024-01-27T09:14:06;3.70;99.90
30250;DHT22;17064;47.974;13.826;2024-01-27T09:19:26;3.80;99.90
30250;DHT22;17064;47.974;13.826;2024-01-27T09:24:45;3.90;99.90
30250;DHT22;17064;47.974;13.826;2024-01-27T09:30:05;4.20;99.90
30250;DHT22;17064;47.974;13.826;2024-01-27T09:35:25;4.40;99.90
30250;DHT22;17064;47.974;13.826;2024-01-27T09:40:45;4.60;99.90
30250;DHT22;17064;47.974;13.826;2024-01-27T09:46:05;4.70;99.90
30250;DHT22;17064;47.974;13.826;2024-01-27T09:51:25;4.80;99.90
30250;DHT22;17064;47.974;13.826;2024-01-27T09:56:46;4.90;99.90
30250;DHT22;17064;47.974;13.826;2024-01-27T10:02:06;5.00;99.90
30250;DHT22;17064;47.974;13.826;2024-01-27T10:07:28;5.10;99.90
30250;DHT22;17064;47.974;13.826;2024-01-27T10:12:48;5.20;99.90
30250;DHT22;17064;47.974;13.826;2024-01-27T10:18:12;5.40;99.90
30250;DHT22;17064;47.974;13.826;2024-01-27T10:23:39;5.40;99.90
30250;DHT22;17064;47.974;13.826;2024-01-27T10:28:58;5.50;99.90
30250;DHT22;17064;47.974;13.826;2024-01-27T10:34:20;5.60;99.90
30250;DHT22;17064;47.974;13.826;2024-01-27T10:39:39;5.60;99.90
30250;DHT22;17064;47.974;13.826;2024-01-27T10:44:59;5.60;99.90
30250;DHT22;17064;47.974;13.826;2024-01-27T10:50:21;5.60;99.90
30250;DHT22;17064;47.974;13.826;2024-01-27T10:55:44;5.70;99.90
30250;DHT22;17064;47.974;13.826;2024-01-27T11:01:05;5.80;99.90
30250;DHT22;17064;47.974;13.826;2024-01-27T11:06:25;5.90;99.90
30250;DHT22;17064;47.974;13.826;2024-01-27T11:11:46;6.00;99.90
30250;DHT22;17064;47.974;13.826;2024-01-27T11:17:06;6.10;99.90
30250;DHT22;17064;47.974;13.826;2024-01-27T11:22:26;6.20;99.90
30250;DHT22;17064;47.974;13.826;2024-01-27T11:27:46;6.20;99.90
30250;DHT22;17064;47.974;13.826;2024-01-27T11:33:10;6.00;99.90
30250;DHT22;17064;47.974;13.826;2024-01-27T11:38:31;5.90;99.90
30250;DHT22;17064;47.974;13.826;2024-01-27T11:43:59;5.80;99.90
30250;DHT22;17064;47.974;13.826;2024-01-27T11:49:22;6.00;99.90
30250;DHT22;17064;47.974;13.826;2024-01-27T11:54:41;6.00;99.90
30250;DHT22;17064;47.974;13.826;2024-01-27T12:00:00;6.30;99.90
30250;DHT22;17064;47.974;13.826;2024-01-27T12:05:19;6.50;99.90
30250;DHT22;17064;47.974;13.826;2024-01-27T12:10:39;6.80;99.90
30250;DHT22;17064;47.974;13.826;2024-01-27T12:15:58;6.80;99.90
30250;DHT22;17064;47.974;13.826;2024-01-27T12:21:21;6.80;99.90
30250;DHT22;17064;47.974;13.826;2024-01-27T12:26:40;7.00;99.90
30250;DHT22;17064;47.974;13.826;2024-01-27T12:32:01;7.30;99.90
30250;DHT22;17064;47.974;13.826;2024-01-27T12:37:22;7.00;99.90
30250;DHT22;17064;47.974;13.826;2024-01-27T12:42:41;6.80;99.90
30250;DHT22;17064;47.974;13.826;2024-01-27T12:48:01;6.70;99.90
30250;DHT22;17064;47.974;13.826;2024-01-27T12:53:21;7.10;99.90
30250;DHT22;17064;47.974;13.826;2024-01-27T12:58:42;7.60;99.90
30250;DHT22;17064;47.974;13.826;2024-01-27T13:04:01;8.00;99.90
30250;DHT22;17064;47.974;13.826;2024-01-27T13:09:20;8.40;99.90
30250;DHT22;17064;47.974;13.826;2024-01-27T13:14:39;8.80;99.90
30250;DHT22;17064;47.974;13.826;2024-01-27T13:19:59;9.20;99.90
30250;DHT22;17064;47.974;13.826;2024-01-27T13:25:18;9.70;99.00
30250;DHT22;17064;47.974;13.826;2024-01-27T13:30:38;10.00;98.00
30250;DHT22;17064;47.974;13.826;2024-01-27T13:35:58;10.10;96.40
30250;DHT22;17064;47.974;13.826;2024-01-27T13:41:18;10.20;93.70
30250;DHT22;17064;47.974;13.826;2024-01-27T13:46:37;10.40;91.80
30250;DHT22;17064;47.974;13.826;2024-01-27T13:51:57;10.10;90.80
30250;DHT22;17064;47.974;13.826;2024-01-27T13:57:16;9.90;90.50
30250;DHT22;17064;47.974;13.826;2024-01-27T14:02:36;9.90;90.30
30250;DHT22;17064;47.974;13.826;2024-01-27T14:07:55;9.90;90.50
30250;DHT22;17064;47.974;13.826;2024-01-27T14:13:14;9.90;89.20
30250;DHT22;17064;47.974;13.826;2024-01-27T14:18:33;9.50;90.30
30250;DHT22;17064;47.974;13.826;2024-01-27T14:23:53;9.10;89.10
30250;DHT22;17064;47.974;13.826;2024-01-27T14:29:20;8.70;91.00
30250;DHT22;17064;47.974;13.826;2024-01-27T14:34:39;8.50;91.60
30250;DHT22;17064;47.974;13.826;2024-01-27T14:39:58;8.10;90.70
30250;DHT22;17064;47.974;13.826;2024-01-27T14:45:17;7.60;91.40
30250;DHT22;17064;47.974;13.826;2024-01-27T14:50:37;6.90;91.90
30250;DHT22;17064;47.974;13.826;2024-01-27T14:55:57;6.40;93.40
30250;DHT22;17064;47.974;13.826;2024-01-27T15:01:16;6.10;94.80
30250;DHT22;17064;47.974;13.826;2024-01-27T15:06:36;5.80;95.40
30250;DHT22;17064;47.974;13.826;2024-01-27T15:11:57;5.70;95.90
30250;DHT22;17064;47.974;13.826;2024-01-27T15:17:17;5.40;96.10
30250;DHT22;17064;47.974;13.826;2024-01-27T15:22:37;5.20;97.00
30250;DHT22;17064;47.974;13.826;2024-01-27T15:27:56;5.00;97.90
30250;DHT22;17064;47.974;13.826;2024-01-27T15:33:16;4.80;98.80
30250;DHT22;17064;47.974;13.826;2024-01-27T15:38:35;4.70;99.80
30250;DHT22;17064;47.974;13.826;2024-01-27T15:43:54;4.50;99.90
30250;DHT22;17064;47.974;13.826;2024-01-27T15:49:14;4.30;99.90
30250;DHT22;17064;47.974;13.826;2024-01-27T15:54:34;4.10;99.90
30250;DHT22;17064;47.974;13.826;2024-01-27T15:59:54;3.90;99.90
30250;DHT22;17064;47.974;13.826;2024-01-27T16:05:15;3.80;99.90
30250;DHT22;17064;47.974;13.826;2024-01-27T16:10:36;3.60;99.90
30250;DHT22;17064;47.974;13.826;2024-01-27T16:15:56;3.40;99.90
30250;DHT22;17064;47.974;13.826;2024-01-27T16:21:16;3.20;99.90
30250;DHT22;17064;47.974;13.826;2024-01-27T16:26:35;3.00;99.90
30250;DHT22;17064;47.974;13.826;2024-01-27T16:31:55;2.80;99.90
30250;DHT22;17064;47.974;13.826;2024-01-27T16:37:14;2.60;99.90
30250;DHT22;17064;47.974;13.826;2024-01-27T16:42:34;2.50;99.90
30250;DHT22;17064;47.974;13.826;2024-01-27T16:47:55;2.30;99.90
30250;DHT22;17064;47.974;13.826;2024-01-27T16:53:14;2.10;99.90
30250;DHT22;17064;47.974;13.826;2024-01-27T16:58:33;2.00;99.90
30250;DHT22;17064;47.974;13.826;2024-01-27T17:03:53;1.90;99.90
30250;DHT22;17064;47.974;13.826;2024-01-27T17:09:13;1.80;99.90
30250;DHT22;17064;47.974;13.826;2024-01-27T17:14:33;1.60;99.90
30250;DHT22;17064;47.974;13.826;2024-01-27T17:19:52;1.40;99.90
30250;DHT22;17064;47.974;13.826;2024-01-27T17:25:14;1.20;99.90
30250;DHT22;17064;47.974;13.826;2024-01-27T17:30:34;1.10;99.90
30250;DHT22;17064;47.974;13.826;2024-01-27T17:35:54;1.00;99.90
30250;DHT22;17064;47.974;13.826;2024-01-27T17:41:13;1.00;99.90
30250;DHT22;17064;47.974;13.826;2024-01-27T17:46:33;1.00;99.90
30250;DHT22;17064;47.974;13.826;2024-01-27T17:51:52;1.00;99.90
30250;DHT22;17064;47.974;13.826;2024-01-27T17:57:12;0.90;99.90
30250;DHT22;17064;47.974;13.826;2024-01-27T18:02:31;0.90;99.90
30250;DHT22;17064;47.974;13.826;2024-01-27T18:07:50;0.90;99.90
30250;DHT22;17064;47.974;13.826;2024-01-27T18:13:13;0.80;99.90
30250;DHT22;17064;47.974;13.826;2024-01-27T18:18:32;0.60;99.90
30250;DHT22;17064;47.974;13.826;2024-01-27T18:23:51;0.50;99.90
30250;DHT22;17064;47.974;13.826;2024-01-27T18:29:11;0.30;99.90
30250;DHT22;17064;47.974;13.826;2024-01-27T18:34:30;0.20;99.90
30250;DHT22;17064;47.974;13.826;2024-01-27T18:39:49;-0.10;99.90
30250;DHT22;17064;47.974;13.826;2024-01-27T18:45:09;-0.10;99.90
30250;DHT22;17064;47.974;13.826;2024-01-27T18:50:29;-0.20;99.90
30250;DHT22;17064;47.974;13.826;2024-01-27T18:55:48;-0.20;99.90
30250;DHT22;17064;47.974;13.826;2024-01-27T19:01:08;-0.20;99.90
30250;DHT22;17064;47.974;13.826;2024-01-27T19:06:30;-0.30;99.90
30250;DHT22;17064;47.974;13.826;2024-01-27T19:11:51;-0.30;99.90
30250;DHT22;17064;47.974;13.826;2024-01-27T19:17:12;-0.20;99.90
30250;DHT22;17064;47.974;13.826;2024-01-27T19:22:31;-0.20;99.90
30250;DHT22;17064;47.974;13.826;2024-01-27T19:27:51;-0.40;99.90
30250;DHT22;17064;47.974;13.826;2024-01-27T19:33:10;-0.50;99.90
30250;DHT22;17064;47.974;13.826;2024-01-27T19:38:30;-0.50;99.90
30250;DHT22;17064;47.974;13.826;2024-01-27T19:43:49;-0.40;99.90
30250;DHT22;17064;47.974;13.826;2024-01-27T19:49:09;-0.50;99.90
30250;DHT22;17064;47.974;13.826;2024-01-27T19:54:28;-0.50;99.90
30250;DHT22;17064;47.974;13.826;2024-01-27T19:59:47;-0.60;99.90
30250;DHT22;17064;47.974;13.826;2024-01-27T20:05:07;-0.70;99.90
30250;DHT22;17064;47.974;13.826;2024-01-27T20:10:30;-0.80;99.90
30250;DHT22;17064;47.974;13.826;2024-01-27T20:15:49;-0.90;99.90
30250;DHT22;17064;47.974;13.826;2024-01-27T20:21:09;-1.10;99.90
30250;DHT22;17064;47.974;13.826;2024-01-27T20:26:28;-1.10;99.90
30250;DHT22;17064;47.974;13.826;2024-01-27T20:31:48;-1.20;99.90
30250;DHT22;17064;47.974;13.826;2024-01-27T20:37:10;-1.20;99.90
30250;DHT22;17064;47.974;13.826;2024-01-27T20:42:30;-1.30;99.90
30250;DHT22;17064;47.974;13.826;2024-01-27T20:47:49;-1.30;99.90
30250;DHT22;17064;47.974;13.826;2024-01-27T20:53:08;-1.30;99.90
30250;DHT22;17064;47.974;13.826;2024-01-27T20:58:28;-1.50;99.90
30250;DHT22;17064;47.974;13.826;2024-01-27T21:03:48;-1.50;99.90
30250;DHT22;17064;47.974;13.826;2024-01-27T21:09:07;-1.60;99.90
30250;DHT22;17064;47.974;13.826;2024-01-27T21:14:27;-1.60;99.90
30250;DHT22;17064;47.974;13.826;2024-01-27T21:19:50;-1.60;99.90
30250;DHT22;17064;47.974;13.826;2024-01-27T21:25:11;-1.70;99.90
30250;DHT22;17064;47.974;13.826;2024-01-27T21:30:30;-1.70;99.90
30250;DHT22;17064;47.974;13.826;2024-01-27T21:35:50;-1.70;99.90
30250;DHT22;17064;47.974;13.826;2024-01-27T21:41:09;-1.70;99.90
30250;DHT22;17064;47.974;13.826;2024-01-27T21:46:29;-1.80;99.90
30250;DHT22;17064;47.974;13.826;2024-01-27T21:51:49;-1.90;99.90
30250;DHT22;17064;47.974;13.826;2024-01-27T21:57:09;-1.90;99.90
30250;DHT22;17064;47.974;13.826;2024-01-27T22:02:29;-1.90;99.90
30250;DHT22;17064;47.974;13.826;2024-01-27T22:07:49;-2.00;99.90
30250;DHT22;17064;47.974;13.826;2024-01-27T22:13:09;-2.00;99.90
30250;DHT22;17064;47.974;13.826;2024-01-27T22:18:28;-2.00;99.90
30250;DHT22;17064;47.974;13.826;2024-01-27T22:23:49;-2.00;99.90
30250;DHT22;17064;47.974;13.826;2024-01-27T22:29:08;-2.00;99.90
30250;DHT22;17064;47.974;13.826;2024-01-27T22:34:27;-2.00;99.90
30250;DHT22;17064;47.974;13.826;2024-01-27T22:39:47;-2.00;99.90
30250;DHT22;17064;47.974;13.826;2024-01-27T22:45:06;-1.90;99.90
30250;DHT22;17064;47.974;13.826;2024-01-27T22:50:27;-1.80;99.90
30250;DHT22;17064;47.974;13.826;2024-01-27T22:55:46;-1.80;99.90
30250;DHT22;17064;47.974;13.826;2024-01-27T23:01:05;-2.00;99.90
30250;DHT22;17064;47.974;13.826;2024-01-27T23:06:28;-2.10;99.90
30250;DHT22;17064;47.974;13.826;2024-01-27T23:11:48;-2.10;99.90
30250;DHT22;17064;47.974;13.826;2024-01-27T23:17:08;-2.10;99.90
30250;DHT22;17064;47.974;13.826;2024-01-27T23:22:27;-2.20;99.90
30250;DHT22;17064;47.974;13.826;2024-01-27T23:27:46;-2.20;99.90
30250;DHT22;17064;47.974;13.826;2024-01-27T23:33:06;-2.30;99.90
30250;DHT22;17064;47.974;13.826;2024-01-27T23:38:25;-2.40;99.90
30250;DHT22;17064;47.974;13.826;2024-01-27T23:43:45;-2.40;99.90
30250;DHT22;17064;47.974;13.826;2024-01-27T23:49:05;-2.50;99.90
30250;DHT22;17064;47.974;13.826;2024-01-27T23:54:24;-2.50;99.90
30250;DHT22;17064;47.974;13.826;2024-01-27T23:59:47;-2.60;99.90
